Time;durP1;ratioP1;P1;durP2;ratioP2;P2;SDS_P1;SDS_P2;PMS_P1;PMS_P2;Temp;Humidity;BMP_temperature;BMP_pressure;BME280_temperature;BME280_humidity;BME280_pressure;Samples;Min_cycle;Max_cycle;Signal;HPM_P1;HPM_P2
2022/06/23 00:01:41;;;;;;;12.23;3.65;;;21.00;99.90;;;;;;1912813;74;21169;-89
2022/06/23 00:04:54;;;;;;;10.15;3.98;;;20.90;99.90;;;;;;1896297;75;21074;-90
2022/06/23 00:10:27;;;;;;;13.95;3.10;;;20.90;99.90;;;;;;1944183;72;22271;-90
2022/06/23 00:13:38;;;;;;;10.38;3.20;;;21.00;99.90;;;;;;1932929;73;21070;-92
2022/06/23 00:16:48;;;;;;;9.20;2.67;;;20.90;99.90;;;;;;1917904;75;21067;-91
2022/06/23 00:19:39;;;;;;;9.30;3.08;;;20.90;99.90;;;;;;1917767;75;21176;-91
2022/06/23 00:25:46;;;;;;;14.60;3.33;;;21.00;99.90;;;;;;1953594;72;22231;-92
2022/06/23 00:29:00;;;;;;;14.45;3.45;;;21.00;99.90;;;;;;1927711;73;21058;-92
2022/06/23 00:32:12;;;;;;;9.73;3.20;;;21.00;99.90;;;;;;1929264;73;21038;-92
2022/06/23 00:37:52;;;;;;;11.55;3.42;;;21.00;99.90;;;;;;1961979;72;22161;-92
2022/06/23 00:41:02;;;;;;;9.55;3.08;;;20.90;99.90;;;;;;1927522;73;21148;-92
2022/06/23 00:44:19;;;;;;;12.18;3.47;;;21.00;99.90;;;;;;1929468;73;21049;-93
2022/06/23 00:47:17;;;;;;;10.13;3.15;;;21.00;99.90;;;;;;1924949;73;21064;-91
2022/06/23 00:54:55;;;;;;;13.32;3.60;;;21.00;99.90;;;;;;1992239;71;22292;-91
2022/06/23 00:58:07;;;;;;;16.60;3.10;;;21.00;99.90;;;;;;1953648;73;21062;-91
2022/06/23 01:01:21;;;;;;;14.43;3.22;;;21.00;99.90;;;;;;2033431;69;21022;-92
2022/06/23 01:04:21;;;;;;;9.28;2.95;;;21.00;99.90;;;;;;2033419;70;21043;-91
2022/06/23 01:07:39;;;;;;;11.25;3.42;;;21.00;99.90;;;;;;2035138;69;21139;-91
2022/06/23 01:13:13;;;;;;;13.20;3.10;;;21.00;99.90;;;;;;1947470;72;22233;-92
2022/06/23 01:19:16;;;;;;;8.90;2.90;;;21.00;99.90;;;;;;1953373;72;22087;-92
2022/06/23 01:22:30;;;;;;;9.55;2.90;;;21.00;99.90;;;;;;1888759;75;21063;-92
2022/06/23 01:28:52;;;;;;;9.60;2.87;;;20.90;99.90;;;;;;1946027;72;22134;-92
2022/06/23 01:32:11;;;;;;;10.95;3.05;;;20.90;99.90;;;;;;1902600;75;21184;-92
2022/06/23 01:35:24;;;;;;;8.75;2.42;;;20.80;99.90;;;;;;1895826;75;21085;-92
2022/06/23 01:38:20;;;;;;;9.60;2.95;;;20.80;99.90;;;;;;1908432;75;21097;-92
2022/06/23 01:44:15;;;;;;;11.93;3.35;;;20.80;99.90;;;;;;1928794;72;22176;-92
2022/06/23 01:47:28;;;;;;;11.25;2.77;;;20.90;99.90;;;;;;1919718;74;21094;-92
2022/06/23 01:53:26;;;;;;;12.55;2.65;;;20.90;99.90;;;;;;1935380;72;22229;-92
2022/06/23 01:56:42;;;;;;;9.83;2.72;;;20.90;99.90;;;;;;1907440;75;21117;-92
2022/06/23 02:00:00;;;;;;;6.62;2.08;;;20.80;99.90;;;;;;1885501;76;21087;-91
2022/06/23 02:02:58;;;;;;;10.60;2.92;;;20.80;99.90;;;;;;1908745;75;21114;-93
2022/06/23 02:30:47;;;;;;;10.58;2.92;;;20.80;99.90;;;;;;1936777;72;22265;-94
2022/06/23 02:34:01;;;;;;;7.95;2.70;;;20.80;99.90;;;;;;1896420;74;21091;-93
2022/06/23 02:37:54;;;;;;;9.13;3.25;;;20.80;99.90;;;;;;1908465;75;21011;-93
2022/06/23 02:40:48;;;;;;;7.78;2.60;;;20.70;99.90;;;;;;1885745;76;21528;-93
2022/06/23 02:47:29;;;;;;;9.70;2.60;;;20.70;99.90;;;;;;2014801;71;22106;-93
2022/06/23 02:51:04;;;;;;;12.15;2.70;;;20.70;99.90;;;;;;1974476;72;21044;-92
2022/06/23 02:57:10;;;;;;;12.68;3.45;;;20.70;99.90;;;;;;1961287;72;22134;-93
2022/06/23 03:00:24;;;;;;;10.43;2.77;;;20.60;99.90;;;;;;1918801;75;21184;-94
2022/06/23 03:03:37;;;;;;;7.67;2.50;;;20.60;99.90;;;;;;1937160;73;21039;-94
2022/06/23 03:06:32;;;;;;;11.45;2.80;;;20.60;99.90;;;;;;1922490;73;21158;-94
2022/06/23 03:09:45;;;;;;;9.85;3.10;;;20.70;99.90;;;;;;1920913;75;21058;-93
2022/06/23 03:12:41;;;;;;;15.88;2.70;;;20.60;99.90;;;;;;1919665;75;21094;-94
2022/06/23 03:15:35;;;;;;;13.38;2.90;;;20.70;99.90;;;;;;1918240;75;21123;-94
2022/06/23 03:18:30;;;;;;;12.40;3.00;;;20.70;99.90;;;;;;1922968;73;21106;-93
2022/06/23 03:21:25;;;;;;;17.55;3.65;;;20.80;99.90;;;;;;1932899;73;21120;-83
2022/06/23 03:24:20;;;;;;;13.70;3.70;;;20.80;99.90;;;;;;1917300;75;21102;-82
2022/06/23 03:27:18;;;;;;;10.80;3.45;;;20.80;99.90;;;;;;1939360;73;21097;-83
2022/06/23 03:32:53;;;;;;;8.33;3.15;;;20.80;99.90;;;;;;1943773;72;22135;-83
2022/06/23 03:42:23;;;;;;;9.83;2.80;;;20.70;99.90;;;;;;1913081;74;21481;-83
2022/06/23 03:45:36;;;;;;;10.75;2.80;;;20.70;99.90;;;;;;1898537;75;21140;-83
2022/06/23 03:51:15;;;;;;;9.03;3.02;;;20.60;99.90;;;;;;1939054;72;22241;-83
2022/06/23 03:54:28;;;;;;;13.72;3.58;;;20.60;99.90;;;;;;1901069;75;21132;-83
2022/06/23 03:57:41;;;;;;;9.65;3.33;;;20.60;99.90;;;;;;1885398;75;21153;-82
2022/06/23 04:03:24;;;;;;;12.20;2.95;;;20.60;99.90;;;;;;1968628;72;22133;-83
2022/06/23 04:06:38;;;;;;;13.50;3.50;;;20.60;99.90;;;;;;1943507;73;21137;-83
2022/06/23 04:09:47;;;;;;;15.68;4.33;;;20.60;99.90;;;;;;1931903;73;21038;-83
2022/06/23 04:12:43;;;;;;;11.75;3.77;;;20.60;99.90;;;;;;1917462;75;21089;-82
2022/06/23 04:15:56;;;;;;;9.90;3.87;;;20.60;99.90;;;;;;1922918;73;21047;-83
2022/06/23 04:18:48;;;;;;;17.55;3.80;;;20.60;99.90;;;;;;1923125;73;21183;-83
2022/06/23 04:21:43;;;;;;;13.43;3.80;;;20.60;99.90;;;;;;1927700;73;21138;-83
2022/06/23 04:24:38;;;;;;;13.03;3.70;;;20.60;99.90;;;;;;1917204;73;21180;-83
2022/06/23 04:27:32;;;;;;;10.05;2.87;;;20.60;99.90;;;;;;1918970;73;21055;-83
2022/06/23 04:33:06;;;;;;;8.68;2.98;;;20.60;99.90;;;;;;1927138;72;22245;-83
2022/06/23 04:36:21;;;;;;;10.03;2.90;;;20.70;99.90;;;;;;1921143;74;21101;-83
2022/06/23 04:39:36;;;;;;;13.30;3.40;;;20.70;99.90;;;;;;1894140;74;21055;-83
2022/06/23 04:42:28;;;;;;;10.32;3.15;;;20.70;99.90;;;;;;1925292;74;21234;-83
2022/06/23 04:45:54;;;;;;;10.45;2.77;;;20.70;99.90;;;;;;1908888;74;21074;-83
2022/06/23 04:51:33;;;;;;;10.55;3.35;;;20.80;99.90;;;;;;1955182;72;22192;-83
2022/06/23 04:54:47;;;;;;;7.25;2.40;;;20.80;99.90;;;;;;1917269;75;21026;-83
2022/06/23 04:58:00;;;;;;;9.98;2.37;;;20.90;99.90;;;;;;1917369;75;21042;-83
2022/06/23 05:03:44;;;;;;;12.53;2.62;;;21.00;99.90;;;;;;1951586;72;22189;-83
2022/06/23 05:06:56;;;;;;;10.32;3.12;;;21.10;99.90;;;;;;1918657;74;21121;-83
2022/06/23 05:10:09;;;;;;;13.78;2.80;;;21.20;99.90;;;;;;1907729;74;21141;-83
2022/06/23 05:15:47;;;;;;;10.80;3.08;;;21.30;99.90;;;;;;1928205;72;22260;-83
2022/06/23 05:19:01;;;;;;;7.87;2.50;;;21.30;99.90;;;;;;1892148;75;21158;-83
2022/06/23 05:22:15;;;;;;;11.90;2.95;;;21.40;99.90;;;;;;1911903;75;21082;-83
2022/06/23 05:28:11;;;;;;;11.48;2.67;;;21.50;99.90;;;;;;1944514;72;22166;-84
2022/06/23 05:34:03;;;;;;;9.55;2.45;;;21.70;99.90;;;;;;1925675;72;22164;-85
2022/06/23 05:37:17;;;;;;;7.58;2.33;;;21.70;99.90;;;;;;1886141;75;21170;-85
2022/06/23 05:40:30;;;;;;;9.48;2.77;;;21.80;99.90;;;;;;1872966;75;21059;-84
2022/06/23 05:43:23;;;;;;;11.20;2.60;;;21.90;99.90;;;;;;1875345;75;21135;-84
2022/06/23 05:49:18;;;;;;;9.55;2.60;;;21.90;99.90;;;;;;1934345;72;22246;-85
2022/06/23 05:52:31;;;;;;;10.78;3.05;;;21.90;99.90;;;;;;1903031;75;21052;-85
2022/06/23 05:58:33;;;;;;;7.03;3.10;;;22.20;99.90;;;;;;1945473;72;22184;-86
2022/06/23 06:01:46;;;;;;;12.98;3.17;;;22.30;99.90;;;;;;1932703;73;21085;-86
2022/06/23 06:04:59;;;;;;;12.47;3.45;;;22.30;99.90;;;;;;1926759;73;21082;-86
2022/06/23 06:07:51;;;;;;;9.15;2.60;;;22.50;99.90;;;;;;1928849;73;21150;-86
2022/06/23 06:11:04;;;;;;;9.38;2.70;;;22.70;99.90;;;;;;1931732;73;21101;-85
2022/06/23 06:13:56;;;;;;;9.45;2.70;;;22.70;99.90;;;;;;1935216;73;21035;-86
2022/06/23 06:19:35;;;;;;;9.05;3.10;;;22.90;99.90;;;;;;1944257;72;22117;-81
2022/06/23 06:22:57;;;;;;;12.18;3.27;;;23.00;99.90;;;;;;1892797;75;21081;-81
2022/06/23 06:26:11;;;;;;;8.00;3.08;;;23.10;99.90;;;;;;1843758;77;21635;-85
2022/06/23 06:34:26;;;;;;;14.45;3.22;;;23.40;99.90;;;;;;1947539;72;22521;-77
2022/06/23 06:37:39;;;;;;;11.12;3.02;;;23.50;99.90;;;;;;1925551;73;21047;-77
2022/06/23 06:43:31;;;;;;;8.23;2.90;;;23.40;99.90;;;;;;1956421;72;22254;-77
2022/06/23 06:46:42;;;;;;;8.80;2.90;;;23.30;99.90;;;;;;1936718;73;21051;-77
2022/06/23 06:49:53;;;;;;;8.78;2.77;;;23.50;99.90;;;;;;1919906;73;21040;-77
2022/06/23 06:52:44;;;;;;;9.80;2.87;;;23.60;99.90;;;;;;1917456;73;21125;-77
2022/06/23 06:58:38;;;;;;;13.50;3.40;;;23.60;99.90;;;;;;1934078;72;22994;-78
2022/06/23 07:01:52;;;;;;;9.25;3.67;;;23.70;99.90;;;;;;1916674;75;21086;-78
2022/06/23 07:05:05;;;;;;;9.05;2.67;;;23.70;99.90;;;;;;1894982;75;21336;-78
2022/06/23 07:08:00;;;;;;;12.37;2.77;;;23.80;99.90;;;;;;1866326;76;21509;-79
2022/06/23 07:13:57;;;;;;;8.70;2.55;;;24.10;99.90;;;;;;1946516;72;22175;-78
2022/06/23 07:19:53;;;;;;;11.68;2.45;;;24.30;99.90;;;;;;1943326;72;22246;-78
2022/06/23 07:23:05;;;;;;;9.13;2.80;;;24.30;99.90;;;;;;1920693;73;21098;-78
2022/06/23 07:29:04;;;;;;;9.70;2.42;;;24.40;99.90;;;;;;1958238;72;22181;-79
2022/06/23 07:35:00;;;;;;;9.63;2.50;;;24.40;99.90;;;;;;1940006;72;22247;-79
2022/06/23 07:38:13;;;;;;;11.40;3.50;;;24.20;99.90;;;;;;1908441;75;21105;-79
2022/06/23 07:44:07;;;;;;;10.10;2.87;;;24.20;99.90;;;;;;1952719;72;22346;-79
2022/06/23 07:47:19;;;;;;;13.08;3.42;;;24.30;99.90;;;;;;1924098;73;21040;-80
2022/06/23 07:53:11;;;;;;;9.18;3.05;;;24.00;99.90;;;;;;1953491;72;22254;-79
2022/06/23 07:59:03;;;;;;;11.55;3.47;;;24.00;99.90;;;;;;1907378;72;22118;-80
2022/06/23 08:02:16;;;;;;;14.50;3.40;;;24.20;99.90;;;;;;1912690;75;21043;-87
2022/06/23 08:08:05;;;;;;;12.75;3.00;;;24.20;99.90;;;;;;1927885;72;22332;-86
2022/06/23 08:16:49;;;;;;;15.13;3.25;;;24.20;99.90;;;;;;1887892;75;21096;-80
2022/06/23 08:17:47;;;;;;;14.90;3.77;;;24.20;99.90;;;;;;1855616;77;21177;-80
2022/06/23 08:23:47;;;;;;;11.22;3.52;;;24.40;99.90;;;;;;1974655;72;22158;-80
2022/06/23 08:27:00;;;;;;;9.80;2.95;;;24.40;99.90;;;;;;1925690;73;21106;-81
2022/06/23 08:30:14;;;;;;;9.58;3.22;;;24.50;99.90;;;;;;1917587;73;21059;-86
2022/06/23 08:33:05;;;;;;;12.40;2.77;;;24.50;99.90;;;;;;1917592;75;21149;-87
2022/06/23 08:36:19;;;;;;;11.00;3.02;;;24.70;99.90;;;;;;1917664;75;21110;-87
2022/06/23 08:39:13;;;;;;;10.63;2.80;;;24.70;99.90;;;;;;1917492;75;21100;-86
2022/06/23 08:42:09;;;;;;;6.95;2.90;;;24.70;99.90;;;;;;1916422;75;21063;-86
2022/06/23 08:45:05;;;;;;;11.50;2.95;;;24.80;99.90;;;;;;1917657;75;21510;-86
2022/06/23 08:48:01;;;;;;;9.08;3.30;;;24.90;99.90;;;;;;1917472;75;21051;-86
2022/06/23 08:53:34;;;;;;;7.78;2.83;;;25.10;99.90;;;;;;1972563;72;22181;-86
2022/06/23 08:56:48;;;;;;;8.25;2.65;;;25.20;99.90;;;;;;1921666;73;21066;-86
2022/06/23 09:00:01;;;;;;;12.20;2.87;;;25.20;99.90;;;;;;1933694;73;21094;-85
2022/06/23 09:02:56;;;;;;;8.40;2.50;;;25.20;99.90;;;;;;1929071;73;21083;-85
2022/06/23 09:08:55;;;;;;;11.33;2.77;;;25.30;99.90;;;;;;1944816;72;22138;-85
2022/06/23 09:12:13;;;;;;;16.90;3.22;;;25.30;99.90;;;;;;1902451;75;21186;-85
2022/06/23 09:18:43;;;;;;;11.22;3.55;;;25.30;99.90;;;;;;1942214;72;22228;-86
2022/06/23 09:22:17;;;;;;;9.90;2.83;;;25.40;99.90;;;;;;1902709;75;21113;-85
2022/06/23 09:28:17;;;;;;;10.50;2.95;;;25.60;99.90;;;;;;1929561;72;22603;-86
2022/06/23 09:31:31;;;;;;;9.28;2.92;;;25.70;99.90;;;;;;1910271;74;21116;-86
2022/06/23 09:34:48;;;;;;;8.53;2.70;;;25.80;99.90;;;;;;1915573;75;21114;-86
2022/06/23 09:38:02;;;;;;;9.68;3.17;;;25.90;99.90;;;;;;1909935;75;21466;-86
2022/06/23 09:44:11;;;;;;;10.48;3.08;;;25.90;99.90;;;;;;1949849;72;22253;-85
2022/06/23 09:47:42;;;;;;;11.22;2.98;;;26.00;99.90;;;;;;1924509;73;21192;-85
2022/06/23 09:51:01;;;;;;;7.15;2.45;;;25.90;99.90;;;;;;1934621;73;21080;-85
2022/06/23 09:57:16;;;;;;;13.48;3.00;;;25.90;99.90;;;;;;1946762;72;22098;-85
2022/06/23 10:03:11;;;;;;;9.45;2.95;;;25.80;99.90;;;;;;1946437;72;22210;-85
2022/06/23 10:06:33;;;;;;;13.22;3.40;;;25.90;99.90;;;;;;1902842;74;21105;-85
2022/06/23 10:10:02;;;;;;;13.90;3.45;;;26.20;99.90;;;;;;1896857;75;21097;-85
2022/06/23 10:13:15;;;;;;;14.68;3.15;;;26.50;99.90;;;;;;1903634;75;21557;-87
2022/06/23 10:16:33;;;;;;;13.38;3.30;;;26.50;99.90;;;;;;1911375;75;21130;-85
2022/06/23 10:19:46;;;;;;;14.05;3.37;;;26.60;99.90;;;;;;1915590;75;21090;-85
2022/06/23 10:22:46;;;;;;;14.45;4.12;;;26.60;99.90;;;;;;1914340;74;21151;-85
2022/06/23 10:28:36;;;;;;;14.75;3.85;;;26.60;99.90;;;;;;1946223;72;20137;-84
2022/06/23 10:31:59;;;;;;;15.98;3.90;;;26.80;99.90;;;;;;1929946;73;21196;-84
2022/06/23 10:38:27;;;;;;;16.42;4.33;;;27.20;99.90;;;;;;1935768;72;22602;-85
2022/06/23 10:42:04;;;;;;;15.43;3.95;;;27.40;99.90;;;;;;1915240;75;21054;-85
2022/06/23 10:51:45;;;;;;;18.80;3.98;;;27.40;99.90;;;;;;1945902;72;22121;-84
2022/06/23 10:58:29;;;;;;;17.52;3.83;;;27.50;99.90;;;;;;1955516;72;22067;-84
2022/06/23 11:02:04;;;;;;;14.68;3.65;;;27.50;99.90;;;;;;1895415;75;21074;-84
2022/06/23 11:08:08;;;;;;;14.00;3.70;;;27.80;99.90;;;;;;1941250;72;22130;-84
2022/06/23 11:11:30;;;;;;;12.00;3.87;;;27.90;99.90;;;;;;1907519;75;21112;-84
2022/06/23 11:14:50;;;;;;;13.08;3.37;;;28.10;99.90;;;;;;1894274;75;21046;-84
2022/06/23 11:17:49;;;;;;;13.05;3.95;;;28.20;99.90;;;;;;1907162;75;21098;-84
2022/06/23 11:21:07;;;;;;;11.50;2.47;;;28.30;99.90;;;;;;1894058;75;21560;-84
2022/06/23 11:24:02;;;;;;;11.45;2.72;;;28.40;99.90;;;;;;1899646;75;21160;-84
2022/06/23 11:29:56;;;;;;;15.45;3.00;;;28.80;99.90;;;;;;1919450;72;22275;-84
2022/06/23 11:33:26;;;;;;;8.18;2.90;;;29.00;99.90;;;;;;1870636;76;21122;-83
2022/06/23 11:39:47;;;;;;;13.40;2.98;;;29.10;99.90;;;;;;1944893;72;20125;-83
2022/06/23 11:43:08;;;;;;;10.98;2.55;;;29.20;99.90;;;;;;1930129;73;21654;-84
2022/06/23 11:46:25;;;;;;;12.93;3.25;;;29.40;99.90;;;;;;1931393;73;21142;-83
2022/06/23 11:49:28;;;;;;;11.55;2.75;;;29.70;99.90;;;;;;1928223;73;21483;-84
2022/06/23 11:55:35;;;;;;;11.78;3.30;;;30.20;99.90;;;;;;1936175;72;22155;-85
2022/06/23 11:58:58;;;;;;;14.90;3.08;;;30.30;99.90;;;;;;1894619;75;21092;-85
2022/06/23 12:02:07;;;;;;;12.40;2.80;;;30.20;99.90;;;;;;1894328;75;21044;-85
2022/06/23 12:05:19;;;;;;;18.62;3.08;;;30.40;99.90;;;;;;1880894;75;21617;-86
2022/06/23 12:08:35;;;;;;;12.25;3.10;;;30.50;99.90;;;;;;1896032;75;21084;-84
2022/06/23 12:11:30;;;;;;;18.57;4.15;;;30.60;99.90;;;;;;1879592;75;21573;-84
2022/06/23 12:14:22;;;;;;;22.42;3.98;;;30.60;99.90;;;;;;1875363;75;21156;-83
2022/06/23 12:17:16;;;;;;;17.75;3.10;;;30.50;99.90;;;;;;1872868;76;21165;-83
2022/06/23 12:20:13;;;;;;;13.03;3.08;;;30.50;99.90;;;;;;1872872;75;21051;-83
2022/06/23 12:25:50;;;;;;;13.48;3.98;;;30.50;99.90;;;;;;1939459;72;22260;-83
2022/06/23 12:29:04;;;;;;;16.02;3.75;;;30.50;99.90;;;;;;1905590;75;21089;-83
2022/06/23 12:35:02;;;;;;;13.53;3.83;;;30.30;99.90;;;;;;1937563;72;22103;-83
2022/06/23 12:38:15;;;;;;;12.00;3.22;;;30.60;99.90;;;;;;1897045;75;21093;-83
2022/06/23 12:44:10;;;;;;;10.15;2.83;;;30.70;99.90;;;;;;1951921;72;22182;-83
2022/06/23 12:47:25;;;;;;;12.18;3.08;;;31.00;99.90;;;;;;1892399;74;21165;-84
2022/06/23 12:53:29;;;;;;;14.83;3.22;;;31.00;99.90;;;;;;1954312;72;22210;-86
2022/06/23 12:56:50;;;;;;;10.98;3.12;;;30.90;99.90;;;;;;1900293;75;21249;-86
2022/06/23 13:00:07;;;;;;;7.58;2.30;;;30.80;99.90;;;;;;1902012;75;21481;-86
2022/06/23 13:03:01;;;;;;;11.83;2.33;;;31.00;97.50;;;;;;1892205;75;21105;-86
2022/06/23 13:06:17;;;;;;;10.95;2.37;;;31.30;94.30;;;;;;1896377;75;21103;-86
2022/06/23 13:09:28;;;;;;;12.33;2.27;;;31.30;93.60;;;;;;1897362;75;21533;-87
2022/06/23 13:15:11;;;;;;;8.43;2.10;;;31.70;92.00;;;;;;1941884;72;22148;-86
2022/06/23 13:21:11;;;;;;;9.05;2.33;;;31.30;91.40;;;;;;1956662;72;22182;-86
2022/06/23 13:24:23;;;;;;;17.23;2.83;;;31.20;91.90;;;;;;1876081;76;21058;-87
2022/06/23 13:27:34;;;;;;;8.90;2.50;;;31.50;92.30;;;;;;1883372;75;21141;-88
2022/06/23 13:33:09;;;;;;;10.18;2.30;;;31.60;91.90;;;;;;1943407;72;22137;-87
2022/06/23 13:36:24;;;;;;;11.12;2.05;;;31.90;92.60;;;;;;1890962;75;21184;-83
2022/06/23 13:39:37;;;;;;;12.82;2.47;;;32.20;95.10;;;;;;1884678;75;21113;-82
2022/06/23 13:45:16;;;;;;;9.78;2.27;;;32.10;95.50;;;;;;1952914;72;22267;-82
2022/06/23 13:48:32;;;;;;;10.05;1.90;;;31.70;94.40;;;;;;1923767;73;21122;-82
2022/06/23 13:51:45;;;;;;;10.38;2.17;;;31.50;95.00;;;;;;1941971;73;21328;-86
2022/06/23 13:54:41;;;;;;;14.13;2.42;;;31.10;95.50;;;;;;1927237;73;21122;-86
2022/06/23 14:00:37;;;;;;;7.85;2.37;;;30.70;95.70;;;;;;1954557;72;22133;-86
2022/06/23 14:03:50;;;;;;;8.90;2.20;;;30.50;95.70;;;;;;1915849;75;21042;-82
2022/06/23 14:09:47;;;;;;;8.33;1.85;;;30.20;96.60;;;;;;1939736;72;22185;-82
2022/06/23 14:13:01;;;;;;;7.37;1.90;;;30.30;96.70;;;;;;1873314;75;21040;-83
2022/06/23 14:16:14;;;;;;;7.55;2.08;;;30.00;97.30;;;;;;1874113;75;21075;-82
2022/06/23 14:19:11;;;;;;;8.58;1.80;;;30.40;97.80;;;;;;1886885;75;21143;-87
2022/06/23 14:22:24;;;;;;;6.12;1.98;;;30.30;97.50;;;;;;1881736;75;21216;-87
2022/06/23 14:28:04;;;;;;;8.30;2.10;;;29.80;98.00;;;;;;1932763;72;28012;-86
2022/06/23 14:31:17;;;;;;;7.35;1.82;;;29.80;98.10;;;;;;1877014;75;21067;-86
2022/06/23 14:39:54;;;;;;;8.53;1.77;;;28.70;99.90;;;;;;1946603;72;22157;-86
2022/06/23 14:43:15;;;;;;;8.18;2.05;;;28.10;99.90;;;;;;1920578;74;21140;-85
2022/06/23 14:46:31;;;;;;;7.70;2.20;;;27.50;99.90;;;;;;1907097;75;21039;-86
2022/06/23 14:49:43;;;;;;;8.38;1.52;;;26.60;99.90;;;;;;1927827;74;21507;-87
2022/06/23 14:52:59;;;;;;;6.05;1.20;;;26.00;99.90;;;;;;1920406;74;21023;-87
2022/06/23 14:58:41;;;;;;;6.40;1.57;;;25.30;99.90;;;;;;1933405;72;22185;-87
2022/06/23 15:01:56;;;;;;;5.83;1.42;;;25.30;99.90;;;;;;1890746;74;21521;-87
2022/06/23 15:05:10;;;;;;;5.12;1.50;;;25.60;99.90;;;;;;1904532;75;21134;-87
2022/06/23 15:08:05;;;;;;;2.90;1.20;;;26.60;99.90;;;;;;1891946;75;21120;-87
2022/06/23 15:11:18;;;;;;;7.17;1.25;;;26.50;99.90;;;;;;1905782;75;21094;-86
2022/06/23 15:16:56;;;;;;;5.70;2.17;;;25.80;99.90;;;;;;1954602;72;22239;-86
2022/06/23 15:20:12;;;;;;;8.90;1.47;;;25.90;99.90;;;;;;1917485;75;21070;-85
2022/06/23 15:23:26;;;;;;;5.37;1.40;;;25.90;99.90;;;;;;1924516;73;21015;-85
2022/06/23 15:26:20;;;;;;;7.33;1.85;;;26.10;99.90;;;;;;1926899;73;21114;-85
2022/06/23 15:29:34;;;;;;;8.58;2.42;;;26.10;99.90;;;;;;1928344;73;21136;-83
2022/06/23 15:35:28;;;;;;;5.00;1.60;;;26.00;99.90;;;;;;1953323;72;22240;-83
2022/06/23 15:38:49;;;;;;;9.68;2.40;;;26.10;99.90;;;;;;1918596;73;21098;-85
2022/06/23 15:44:48;;;;;;;7.60;3.08;;;26.30;99.90;;;;;;1941699;72;22303;-85
2022/06/23 15:47:59;;;;;;;;;;;26.40;99.90;;;;;;1918264;74;21091;-85
2022/06/23 15:53:37;;;;;;;6.80;1.67;;;26.40;99.90;;;;;;1940813;72;22137;-85
2022/06/23 15:59:29;;;;;;;6.25;1.62;;;26.20;99.90;;;;;;1956865;72;22123;-85
2022/06/23 16:02:43;;;;;;;6.87;1.77;;;26.00;99.90;;;;;;1917493;74;21061;-86
2022/06/23 16:08:37;;;;;;;9.13;2.22;;;26.10;99.90;;;;;;1943644;72;22273;-85
2022/06/23 16:11:52;;;;;;;9.33;1.98;;;27.70;99.90;;;;;;1902869;75;21086;-85
2022/06/23 16:15:05;;;;;;;6.40;2.05;;;28.40;99.90;;;;;;1901901;75;21101;-85
2022/06/23 16:18:00;;;;;;;6.15;2.08;;;27.50;99.90;;;;;;1913589;75;21044;-85
2022/06/23 16:21:12;;;;;;;7.12;1.42;;;26.80;99.90;;;;;;1890728;75;21102;-85
2022/06/23 16:24:08;;;;;;;7.12;1.77;;;26.50;99.90;;;;;;1878223;75;21105;-83
2022/06/23 16:27:07;;;;;;;6.47;1.45;;;26.40;99.90;;;;;;1894584;75;21148;-83
2022/06/23 16:30:01;;;;;;;6.55;1.47;;;26.40;99.90;;;;;;1901121;75;21091;-83
2022/06/23 16:32:55;;;;;;;5.45;1.70;;;26.30;99.90;;;;;;1895721;75;21467;-82
2022/06/23 16:35:51;;;;;;;4.37;1.40;;;26.20;99.90;;;;;;1888515;75;21061;-83
2022/06/23 16:38:48;;;;;;;4.65;1.75;;;26.40;99.90;;;;;;1887183;75;21051;-83
2022/06/23 16:44:33;;;;;;;7.67;2.40;;;31.60;99.90;;;;;;1955501;72;22161;-83
2022/06/23 16:47:45;;;;;;;8.15;2.42;;;32.60;99.90;;;;;;1913500;73;21068;-83
2022/06/23 16:53:41;;;;;;;6.83;2.00;;;33.90;99.90;;;;;;1946815;72;22261;-82
2022/06/23 16:56:53;;;;;;;6.53;2.45;;;34.40;99.90;;;;;;1890811;75;21100;-82
2022/06/23 17:00:07;;;;;;;6.83;2.05;;;34.50;99.90;;;;;;1889780;75;21565;-86
2022/06/23 17:05:47;;;;;;;8.33;2.52;;;30.40;99.90;;;;;;1954578;72;22158;-86
2022/06/23 17:09:01;;;;;;;8.35;2.70;;;29.40;99.90;;;;;;1884992;76;21113;-86
2022/06/23 17:12:14;;;;;;;6.50;2.55;;;28.50;99.90;;;;;;1900153;75;21454;-85
2022/06/23 17:15:11;;;;;;;7.75;2.60;;;27.90;99.90;;;;;;1906726;75;21091;-86
2022/06/23 17:18:24;;;;;;;8.78;2.92;;;27.60;99.90;;;;;;1895659;75;21082;-85
2022/06/23 17:21:21;;;;;;;9.88;2.42;;;27.20;99.90;;;;;;1895713;75;21171;-86
2022/06/23 17:24:19;;;;;;;7.03;2.47;;;27.00;99.90;;;;;;1912780;75;21140;-86
2022/06/23 17:27:20;;;;;;;8.90;2.05;;;26.90;99.90;;;;;;1907123;75;21113;-86
2022/06/23 17:30:18;;;;;;;10.13;2.25;;;26.60;99.90;;;;;;1905031;75;21055;-85
2022/06/23 17:33:13;;;;;;;7.92;2.27;;;26.30;99.90;;;;;;1885276;75;21677;-86
2022/06/23 17:36:12;;;;;;;7.05;1.87;;;26.20;99.90;;;;;;1896485;75;21063;-85
2022/06/23 17:45:01;;;;;;;8.58;2.70;;;25.50;99.90;;;;;;1930093;72;22141;-85
2022/06/23 17:51:05;;;;;;;6.75;1.70;;;25.00;99.90;;;;;;1957632;72;22079;-85
2022/06/23 17:54:17;;;;;;;7.00;1.80;;;24.80;99.90;;;;;;1900325;75;21086;-84
2022/06/23 17:57:34;;;;;;;7.97;1.67;;;24.70;99.90;;;;;;1899460;75;21072;-84
2022/06/23 18:03:17;;;;;;;6.75;1.60;;;24.90;99.90;;;;;;1952599;72;22102;-84
2022/06/23 18:06:30;;;;;;;8.15;1.70;;;24.90;99.90;;;;;;1894942;75;21051;-84
2022/06/23 18:09:48;;;;;;;7.35;1.90;;;24.90;99.90;;;;;;1894303;75;21176;-84
2022/06/23 18:12:39;;;;;;;;;;;25.10;99.90;;;;;;1875439;75;21115;-85
2022/06/23 18:15:36;;;;;;;9.13;2.33;;;25.00;99.90;;;;;;1872941;76;20216;-84
2022/06/23 18:18:31;;;;;;;6.83;1.72;;;24.90;99.90;;;;;;1873066;76;21056;-84
2022/06/23 18:21:31;;;;;;;8.28;1.67;;;24.70;99.90;;;;;;1904731;75;21121;-84
2022/06/23 18:24:33;;;;;;;9.15;1.67;;;24.60;99.90;;;;;;1882753;75;21103;-84
2022/06/23 18:27:27;;;;;;;9.83;2.40;;;24.40;99.90;;;;;;1883793;75;21122;-84
2022/06/23 18:30:22;;;;;;;7.15;1.80;;;24.40;99.90;;;;;;1884842;75;21076;-84
2022/06/23 18:33:18;;;;;;;10.70;2.30;;;24.40;99.90;;;;;;1889044;75;21083;-83
2022/06/23 18:36:15;;;;;;;7.03;1.95;;;24.60;99.90;;;;;;1893042;75;21087;-83
2022/06/23 18:39:12;;;;;;;7.90;2.00;;;24.50;99.90;;;;;;1894815;75;21060;-83
2022/06/23 18:42:08;;;;;;;8.78;2.25;;;24.50;99.90;;;;;;1894864;75;21183;-84
2022/06/23 18:45:03;;;;;;;6.90;1.90;;;24.60;99.90;;;;;;1894814;75;21087;-85
2022/06/23 18:50:44;;;;;;;4.40;1.57;;;24.40;99.90;;;;;;1963902;72;22518;-77
2022/06/23 18:53:59;;;;;;;9.48;2.83;;;24.40;99.90;;;;;;1929137;73;21054;-77
2022/06/23 18:57:11;;;;;;;9.43;2.50;;;24.40;99.90;;;;;;1917486;75;21517;-76
2022/06/23 19:00:08;;;;;;;10.28;2.67;;;24.50;99.90;;;;;;1917572;75;21200;-77
2022/06/23 19:03:21;;;;;;;8.25;2.83;;;24.60;99.90;;;;;;1917448;75;21046;-77
2022/06/23 19:06:21;;;;;;;13.72;2.47;;;24.60;99.90;;;;;;1940261;73;21071;-77
2022/06/23 19:09:21;;;;;;;6.12;1.98;;;24.70;99.90;;;;;;1917544;75;21120;-77
2022/06/23 19:15:00;;;;;;;8.88;2.58;;;24.70;99.90;;;;;;1929015;72;22130;-78
2022/06/23 19:18:17;;;;;;;7.47;2.42;;;24.60;99.90;;;;;;1953587;72;21105;-77
2022/06/23 19:21:32;;;;;;;7.45;2.75;;;24.50;99.90;;;;;;1929887;73;21149;-77
2022/06/23 19:24:33;;;;;;;11.00;2.75;;;24.40;99.90;;;;;;1936863;72;21051;-77
2022/06/23 19:30:31;;;;;;;7.22;2.35;;;24.40;99.90;;;;;;1942113;72;22153;-78
2022/06/23 19:33:43;;;;;;;6.85;2.15;;;24.40;99.90;;;;;;1889956;75;21116;-77
2022/06/23 19:36:58;;;;;;;8.68;2.33;;;24.20;99.90;;;;;;1903602;75;21523;-77
2022/06/23 19:39:57;;;;;;;6.80;2.83;;;24.10;99.90;;;;;;1889428;75;22211;-77
2022/06/23 19:45:55;;;;;;;8.70;2.50;;;24.10;99.90;;;;;;1903654;72;38410;-77
2022/06/23 19:49:08;;;;;;;8.85;2.85;;;24.30;99.90;;;;;;1898515;75;21112;-77
2022/06/23 19:55:07;;;;;;;9.15;3.15;;;24.30;99.90;;;;;;1947248;72;22141;-77
2022/06/23 20:01:09;;;;;;;10.60;3.08;;;24.20;99.90;;;;;;1940711;72;22180;-77
2022/06/23 20:04:23;;;;;;;8.38;2.47;;;24.20;99.90;;;;;;1898435;75;21092;-77
2022/06/23 20:07:37;;;;;;;10.53;2.95;;;24.10;99.90;;;;;;1887894;75;21164;-77
2022/06/23 20:10:35;;;;;;;11.20;2.77;;;24.00;99.90;;;;;;1883371;75;21570;-78
2022/06/23 20:13:54;;;;;;;8.65;2.83;;;23.90;99.90;;;;;;1878608;75;21116;-78
2022/06/23 20:19:30;;;;;;;10.38;2.75;;;23.80;99.90;;;;;;1948255;72;22260;-77
2022/06/23 20:22:48;;;;;;;10.55;3.67;;;23.80;99.90;;;;;;1880429;74;21054;-77
2022/06/23 20:29:09;;;;;;;10.72;3.62;;;23.60;99.90;;;;;;1937449;72;22699;-78
2022/06/23 20:35:25;;;;;;;11.28;3.50;;;23.60;99.90;;;;;;1929332;72;22915;-78
2022/06/23 20:38:55;;;;;;;10.65;3.10;;;23.70;99.90;;;;;;1892416;74;21225;-77
2022/06/23 20:42:11;;;;;;;9.33;3.42;;;23.80;99.90;;;;;;1890885;74;21610;-77
2022/06/23 20:47:58;;;;;;;10.70;3.05;;;23.80;99.90;;;;;;1950225;72;22184;-77
2022/06/23 20:51:12;;;;;;;9.63;3.15;;;23.70;99.90;;;;;;1901060;75;21076;-77
2022/06/23 20:54:25;;;;;;;10.82;3.40;;;23.60;99.90;;;;;;1901536;75;21074;-77
2022/06/23 21:00:05;;;;;;;9.33;3.15;;;23.50;99.90;;;;;;1933061;72;28298;-78
2022/06/23 21:03:19;;;;;;;7.42;2.80;;;23.70;99.90;;;;;;1923128;73;21069;-78